sensor_id;sensor_type;location;lat;lon;timestamp;temperature;humidity
10453;DHT22;5274;51.992;8.518;2023-02-03T00:00:30;6.70;1.00
10453;DHT22;5274;51.992;8.518;2023-02-03T00:02:56;6.70;1.00
10453;DHT22;5274;51.992;8.518;2023-02-03T00:05:21;6.70;1.00
10453;DHT22;5274;51.992;8.518;2023-02-03T00:07:47;6.80;1.00
10453;DHT22;5274;51.992;8.518;2023-02-03T00:10:13;6.70;1.00
10453;DHT22;5274;51.992;8.518;2023-02-03T00:12:39;6.70;1.00
10453;DHT22;5274;51.992;8.518;2023-02-03T00:15:05;6.70;1.00
10453;DHT22;5274;51.992;8.518;2023-02-03T00:17:30;6.70;1.00
10453;DHT22;5274;51.992;8.518;2023-02-03T00:19:56;6.70;1.00
10453;DHT22;5274;51.992;8.518;2023-02-03T00:22:21;6.70;1.00
10453;DHT22;5274;51.992;8.518;2023-02-03T00:24:47;6.80;1.00
10453;DHT22;5274;51.992;8.518;2023-02-03T00:27:12;6.80;1.00
10453;DHT22;5274;51.992;8.518;2023-02-03T00:29:38;6.80;1.00
10453;DHT22;5274;51.992;8.518;2023-02-03T00:32:04;6.80;1.00
10453;DHT22;5274;51.992;8.518;2023-02-03T00:34:30;6.80;1.00
10453;DHT22;5274;51.992;8.518;2023-02-03T00:36:56;6.80;1.00
10453;DHT22;5274;51.992;8.518;2023-02-03T00:39:22;6.70;1.00
10453;DHT22;5274;51.992;8.518;2023-02-03T00:41:47;6.80;1.00
10453;DHT22;5274;51.992;8.518;2023-02-03T00:44:13;6.80;1.00
10453;DHT22;5274;51.992;8.518;2023-02-03T00:46:39;6.90;1.00
10453;DHT22;5274;51.992;8.518;2023-02-03T00:49:05;6.80;1.00
10453;DHT22;5274;51.992;8.518;2023-02-03T00:51:31;6.80;1.00
10453;DHT22;5274;51.992;8.518;2023-02-03T00:53:57;6.90;1.00
10453;DHT22;5274;51.992;8.518;2023-02-03T00:56:22;6.80;1.00
10453;DHT22;5274;51.992;8.518;2023-02-03T00:58:48;6.80;1.00
10453;DHT22;5274;51.992;8.518;2023-02-03T01:01:13;6.80;1.00
10453;DHT22;5274;51.992;8.518;2023-02-03T01:03:39;6.90;1.00
10453;DHT22;5274;51.992;8.518;2023-02-03T01:06:23;6.90;1.00
10453;DHT22;5274;51.992;8.518;2023-02-03T01:08:49;6.80;1.00
10453;DHT22;5274;51.992;8.518;2023-02-03T01:11:17;6.80;1.00
10453;DHT22;5274;51.992;8.518;2023-02-03T01:13:44;6.90;1.00
10453;DHT22;5274;51.992;8.518;2023-02-03T01:16:11;6.80;1.00
10453;DHT22;5274;51.992;8.518;2023-02-03T01:18:37;6.80;1.00
10453;DHT22;5274;51.992;8.518;2023-02-03T01:21:05;6.80;1.00
10453;DHT22;5274;51.992;8.518;2023-02-03T01:23:30;6.90;1.00
10453;DHT22;5274;51.992;8.518;2023-02-03T01:25:56;6.90;1.00
10453;DHT22;5274;51.992;8.518;2023-02-03T01:28:25;6.90;1.00
10453;DHT22;5274;51.992;8.518;2023-02-03T01:30:51;6.90;1.00
10453;DHT22;5274;51.992;8.518;2023-02-03T01:33:16;6.90;1.00
10453;DHT22;5274;51.992;8.518;2023-02-03T01:35:42;7.00;1.00
10453;DHT22;5274;51.992;8.518;2023-02-03T01:38:07;6.90;1.00
10453;DHT22;5274;51.992;8.518;2023-02-03T01:40:33;7.00;1.00
10453;DHT22;5274;51.992;8.518;2023-02-03T01:42:58;6.90;1.00
10453;DHT22;5274;51.992;8.518;2023-02-03T01:45:24;6.90;1.00
10453;DHT22;5274;51.992;8.518;2023-02-03T01:47:54;6.90;1.00
10453;DHT22;5274;51.992;8.518;2023-02-03T01:50:24;6.90;1.00
10453;DHT22;5274;51.992;8.518;2023-02-03T01:53:00;7.00;1.00
10453;DHT22;5274;51.992;8.518;2023-02-03T01:55:32;6.90;1.00
10453;DHT22;5274;51.992;8.518;2023-02-03T01:58:02;6.90;1.00
10453;DHT22;5274;51.992;8.518;2023-02-03T02:00:31;7.00;99.90
10453;DHT22;5274;51.992;8.518;2023-02-03T02:02:58;7.00;99.90
10453;DHT22;5274;51.992;8.518;2023-02-03T02:05:29;6.90;99.90
10453;DHT22;5274;51.992;8.518;2023-02-03T02:07:57;6.90;1.00
10453;DHT22;5274;51.992;8.518;2023-02-03T02:10:24;7.00;1.00
10453;DHT22;5274;51.992;8.518;2023-02-03T02:12:50;7.00;1.00
10453;DHT22;5274;51.992;8.518;2023-02-03T02:15:16;7.00;99.90
10453;DHT22;5274;51.992;8.518;2023-02-03T02:18:39;7.00;99.90
10453;DHT22;5274;51.992;8.518;2023-02-03T02:27:02;6.90;99.90
10453;DHT22;5274;51.992;8.518;2023-02-03T02:38:03;6.90;99.90
10453;DHT22;5274;51.992;8.518;2023-02-03T02:40:32;6.90;99.90
10453;DHT22;5274;51.992;8.518;2023-02-03T02:43:22;6.90;99.90
10453;DHT22;5274;51.992;8.518;2023-02-03T02:46:24;7.00;99.90
10453;DHT22;5274;51.992;8.518;2023-02-03T02:51:40;7.00;99.90
10453;DHT22;5274;51.992;8.518;2023-02-03T02:54:11;7.00;99.90
10453;DHT22;5274;51.992;8.518;2023-02-03T02:56:39;7.00;99.90
10453;DHT22;5274;51.992;8.518;2023-02-03T02:59:07;7.00;99.90
10453;DHT22;5274;51.992;8.518;2023-02-03T03:01:33;7.00;99.90
10453;DHT22;5274;51.992;8.518;2023-02-03T03:04:02;7.00;99.90
10453;DHT22;5274;51.992;8.518;2023-02-03T03:06:35;7.00;99.90
10453;DHT22;5274;51.992;8.518;2023-02-03T03:09:12;7.10;99.90
10453;DHT22;5274;51.992;8.518;2023-02-03T03:11:44;7.10;99.90
10453;DHT22;5274;51.992;8.518;2023-02-03T03:14:12;7.10;99.90
10453;DHT22;5274;51.992;8.518;2023-02-03T03:16:42;7.10;99.90
10453;DHT22;5274;51.992;8.518;2023-02-03T03:19:14;7.10;99.90
10453;DHT22;5274;51.992;8.518;2023-02-03T03:21:47;7.10;99.90
10453;DHT22;5274;51.992;8.518;2023-02-03T03:24:17;7.00;99.90
10453;DHT22;5274;51.992;8.518;2023-02-03T03:26:54;7.00;99.90
10453;DHT22;5274;51.992;8.518;2023-02-03T03:29:28;7.00;99.90
10453;DHT22;5274;51.992;8.518;2023-02-03T03:31:55;7.00;99.90
10453;DHT22;5274;51.992;8.518;2023-02-03T03:34:21;7.10;99.90
10453;DHT22;5274;51.992;8.518;2023-02-03T03:36:55;7.10;99.90
10453;DHT22;5274;51.992;8.518;2023-02-03T03:39:57;7.10;99.90
10453;DHT22;5274;51.992;8.518;2023-02-03T03:42:28;7.10;99.90
10453;DHT22;5274;51.992;8.518;2023-02-03T03:45:06;7.10;99.90
10453;DHT22;5274;51.992;8.518;2023-02-03T03:47:47;7.10;99.90
10453;DHT22;5274;51.992;8.518;2023-02-03T03:50:27;7.10;99.90
10453;DHT22;5274;51.992;8.518;2023-02-03T03:52:54;7.10;99.90
10453;DHT22;5274;51.992;8.518;2023-02-03T03:55:21;7.10;99.90
10453;DHT22;5274;51.992;8.518;2023-02-03T03:58:06;7.10;99.90
10453;DHT22;5274;51.992;8.518;2023-02-03T04:00:35;7.10;99.90
10453;DHT22;5274;51.992;8.518;2023-02-03T04:03:10;7.00;99.90
10453;DHT22;5274;51.992;8.518;2023-02-03T04:05:37;7.10;99.90
10453;DHT22;5274;51.992;8.518;2023-02-03T04:08:03;7.10;99.90
10453;DHT22;5274;51.992;8.518;2023-02-03T04:10:30;7.10;99.90
10453;DHT22;5274;51.992;8.518;2023-02-03T04:12:55;7.10;99.90
10453;DHT22;5274;51.992;8.518;2023-02-03T04:15:21;7.10;99.90
10453;DHT22;5274;51.992;8.518;2023-02-03T04:17:47;7.10;99.90
10453;DHT22;5274;51.992;8.518;2023-02-03T04:20:12;7.10;99.90
10453;DHT22;5274;51.992;8.518;2023-02-03T04:22:38;7.10;99.90
10453;DHT22;5274;51.992;8.518;2023-02-03T04:25:04;7.10;99.90
10453;DHT22;5274;51.992;8.518;2023-02-03T04:27:30;7.10;99.90
10453;DHT22;5274;51.992;8.518;2023-02-03T04:29:55;7.10;92.60
10453;DHT22;5274;51.992;8.518;2023-02-03T04:32:21;7.10;99.90
10453;DHT22;5274;51.992;8.518;2023-02-03T04:34:46;7.10;31.50
10453;DHT22;5274;51.992;8.518;2023-02-03T04:37:12;7.10;39.70
10453;DHT22;5274;51.992;8.518;2023-02-03T04:39:37;7.10;74.90
10453;DHT22;5274;51.992;8.518;2023-02-03T04:42:03;7.10;35.80
10453;DHT22;5274;51.992;8.518;2023-02-03T04:44:28;7.10;69.10
10453;DHT22;5274;51.992;8.518;2023-02-03T04:46:54;7.10;80.70
10453;DHT22;5274;51.992;8.518;2023-02-03T04:49:19;7.10;24.90
10453;DHT22;5274;51.992;8.518;2023-02-03T04:51:47;7.10;1.00
10453;DHT22;5274;51.992;8.518;2023-02-03T04:54:13;7.10;1.00
10453;DHT22;5274;51.992;8.518;2023-02-03T04:56:39;7.10;41.20
10453;DHT22;5274;51.992;8.518;2023-02-03T04:59:04;7.10;87.80
10453;DHT22;5274;51.992;8.518;2023-02-03T05:01:30;7.10;22.90
10453;DHT22;5274;51.992;8.518;2023-02-03T05:03:55;7.10;74.40
10453;DHT22;5274;51.992;8.518;2023-02-03T05:06:25;7.10;57.80
10453;DHT22;5274;51.992;8.518;2023-02-03T05:08:54;7.10;57.30
10453;DHT22;5274;51.992;8.518;2023-02-03T05:11:20;7.10;2.10
10453;DHT22;5274;51.992;8.518;2023-02-03T05:13:46;7.10;42.00
10453;DHT22;5274;51.992;8.518;2023-02-03T05:16:11;7.10;3.10
10453;DHT22;5274;51.992;8.518;2023-02-03T05:18:37;7.10;12.70
10453;DHT22;5274;51.992;8.518;2023-02-03T05:21:03;7.10;29.20
10453;DHT22;5274;51.992;8.518;2023-02-03T05:23:28;7.10;8.00
10453;DHT22;5274;51.992;8.518;2023-02-03T05:25:54;7.10;1.00
10453;DHT22;5274;51.992;8.518;2023-02-03T05:28:19;7.10;12.80
10453;DHT22;5274;51.992;8.518;2023-02-03T05:30:45;7.10;13.80
10453;DHT22;5274;51.992;8.518;2023-02-03T05:33:11;7.10;1.00
10453;DHT22;5274;51.992;8.518;2023-02-03T05:35:36;7.10;1.00
10453;DHT22;5274;51.992;8.518;2023-02-03T05:38:02;7.10;1.00
10453;DHT22;5274;51.992;8.518;2023-02-03T05:40:27;7.10;1.00
10453;DHT22;5274;51.992;8.518;2023-02-03T05:43:12;7.10;1.00
10453;DHT22;5274;51.992;8.518;2023-02-03T05:45:37;7.10;1.00
10453;DHT22;5274;51.992;8.518;2023-02-03T05:48:03;7.10;1.00
10453;DHT22;5274;51.992;8.518;2023-02-03T05:50:30;7.10;1.00
10453;DHT22;5274;51.992;8.518;2023-02-03T05:52:59;7.10;1.00
10453;DHT22;5274;51.992;8.518;2023-02-03T05:55:26;7.20;1.00
10453;DHT22;5274;51.992;8.518;2023-02-03T05:57:52;7.10;1.00
10453;DHT22;5274;51.992;8.518;2023-02-03T06:00:18;7.10;1.00
10453;DHT22;5274;51.992;8.518;2023-02-03T06:05:17;7.10;1.00
10453;DHT22;5274;51.992;8.518;2023-02-03T06:07:42;7.10;1.00
10453;DHT22;5274;51.992;8.518;2023-02-03T06:10:08;7.10;77.10
10453;DHT22;5274;51.992;8.518;2023-02-03T06:12:34;7.00;99.90
10453;DHT22;5274;51.992;8.518;2023-02-03T06:14:59;7.00;99.90
10453;DHT22;5274;51.992;8.518;2023-02-03T06:17:25;6.90;99.90
10453;DHT22;5274;51.992;8.518;2023-02-03T06:19:50;6.90;99.90
10453;DHT22;5274;51.992;8.518;2023-02-03T06:22:16;6.90;99.90
10453;DHT22;5274;51.992;8.518;2023-02-03T06:24:41;6.80;99.90
10453;DHT22;5274;51.992;8.518;2023-02-03T06:27:09;6.80;99.90
10453;DHT22;5274;51.992;8.518;2023-02-03T06:29:34;6.80;99.90
10453;DHT22;5274;51.992;8.518;2023-02-03T06:31:59;6.70;99.90
10453;DHT22;5274;51.992;8.518;2023-02-03T06:34:25;6.70;99.90
10453;DHT22;5274;51.992;8.518;2023-02-03T06:36:51;6.60;99.90
10453;DHT22;5274;51.992;8.518;2023-02-03T06:39:16;6.60;99.90
10453;DHT22;5274;51.992;8.518;2023-02-03T06:41:42;6.70;99.90
10453;DHT22;5274;51.992;8.518;2023-02-03T06:44:07;6.70;99.90
10453;DHT22;5274;51.992;8.518;2023-02-03T06:46:33;6.70;99.90
10453;DHT22;5274;51.992;8.518;2023-02-03T06:48:58;6.70;99.90
10453;DHT22;5274;51.992;8.518;2023-02-03T06:51:24;6.70;99.90
10453;DHT22;5274;51.992;8.518;2023-02-03T06:53:49;6.70;99.90
10453;DHT22;5274;51.992;8.518;2023-02-03T06:56:15;6.70;99.90
10453;DHT22;5274;51.992;8.518;2023-02-03T06:58:40;6.70;99.90
10453;DHT22;5274;51.992;8.518;2023-02-03T07:01:06;6.70;99.90
10453;DHT22;5274;51.992;8.518;2023-02-03T07:03:31;6.80;99.90
10453;DHT22;5274;51.992;8.518;2023-02-03T07:05:57;6.70;99.90
10453;DHT22;5274;51.992;8.518;2023-02-03T07:08:22;6.70;99.90
10453;DHT22;5274;51.992;8.518;2023-02-03T07:10:53;6.70;99.90
10453;DHT22;5274;51.992;8.518;2023-02-03T07:13:18;6.70;99.90
10453;DHT22;5274;51.992;8.518;2023-02-03T07:15:44;6.70;99.90
10453;DHT22;5274;51.992;8.518;2023-02-03T07:18:09;6.70;1.00
10453;DHT22;5274;51.992;8.518;2023-02-03T07:20:35;6.70;1.00
10453;DHT22;5274;51.992;8.518;2023-02-03T07:23:00;6.70;1.00
10453;DHT22;5274;51.992;8.518;2023-02-03T07:25:26;6.70;1.00
10453;DHT22;5274;51.992;8.518;2023-02-03T07:27:52;5.80;1.00
10453;DHT22;5274;51.992;8.518;2023-02-03T07:30:17;6.70;1.00
10453;DHT22;5274;51.992;8.518;2023-02-03T07:32:48;6.70;1.00
10453;DHT22;5274;51.992;8.518;2023-02-03T07:35:14;6.70;1.00
10453;DHT22;5274;51.992;8.518;2023-02-03T07:37:40;6.60;99.90
10453;DHT22;5274;51.992;8.518;2023-02-03T07:40:06;6.70;99.90
10453;DHT22;5274;51.992;8.518;2023-02-03T07:42:31;6.70;99.90
10453;DHT22;5274;51.992;8.518;2023-02-03T07:44:57;6.70;1.00
10453;DHT22;5274;51.992;8.518;2023-02-03T07:47:22;6.70;1.00
10453;DHT22;5274;51.992;8.518;2023-02-03T07:49:48;6.70;1.00
10453;DHT22;5274;51.992;8.518;2023-02-03T07:52:13;6.70;1.00
10453;DHT22;5274;51.992;8.518;2023-02-03T07:54:39;6.70;1.00
10453;DHT22;5274;51.992;8.518;2023-02-03T07:57:04;6.70;1.00
10453;DHT22;5274;51.992;8.518;2023-02-03T07:59:30;6.70;1.00
10453;DHT22;5274;51.992;8.518;2023-02-03T08:01:55;6.70;1.00
10453;DHT22;5274;51.992;8.518;2023-02-03T08:04:21;6.70;1.00
10453;DHT22;5274;51.992;8.518;2023-02-03T08:06:47;6.70;1.00
10453;DHT22;5274;51.992;8.518;2023-02-03T08:09:12;6.70;1.00
10453;DHT22;5274;51.992;8.518;2023-02-03T08:11:38;6.80;1.00
10453;DHT22;5274;51.992;8.518;2023-02-03T08:14:03;6.80;1.00
10453;DHT22;5274;51.992;8.518;2023-02-03T08:16:29;6.70;1.00
10453;DHT22;5274;51.992;8.518;2023-02-03T08:18:54;6.80;1.00
10453;DHT22;5274;51.992;8.518;2023-02-03T08:21:20;6.80;1.00
10453;DHT22;5274;51.992;8.518;2023-02-03T08:23:45;6.90;1.00
10453;DHT22;5274;51.992;8.518;2023-02-03T08:26:11;6.80;1.00
10453;DHT22;5274;51.992;8.518;2023-02-03T08:28:36;6.80;1.00
10453;DHT22;5274;51.992;8.518;2023-02-03T08:31:09;6.80;1.00
10453;DHT22;5274;51.992;8.518;2023-02-03T08:33:34;6.80;1.00
10453;DHT22;5274;51.992;8.518;2023-02-03T08:36:00;6.80;1.00
10453;DHT22;5274;51.992;8.518;2023-02-03T08:38:27;6.90;1.00
10453;DHT22;5274;51.992;8.518;2023-02-03T08:40:52;6.90;1.00
10453;DHT22;5274;51.992;8.518;2023-02-03T08:43:18;6.80;1.00
10453;DHT22;5274;51.992;8.518;2023-02-03T08:45:43;6.90;1.00
10453;DHT22;5274;51.992;8.518;2023-02-03T08:48:09;6.90;1.00
10453;DHT22;5274;51.992;8.518;2023-02-03T08:50:34;6.90;1.00
10453;DHT22;5274;51.992;8.518;2023-02-03T08:53:00;6.90;1.00
10453;DHT22;5274;51.992;8.518;2023-02-03T08:55:25;6.90;1.00
10453;DHT22;5274;51.992;8.518;2023-02-03T08:57:51;6.90;1.00
10453;DHT22;5274;51.992;8.518;2023-02-03T09:00:17;6.90;1.00
10453;DHT22;5274;51.992;8.518;2023-02-03T09:02:42;6.90;1.00
10453;DHT22;5274;51.992;8.518;2023-02-03T09:05:08;6.90;1.00
10453;DHT22;5274;51.992;8.518;2023-02-03T09:07:34;6.90;1.00
10453;DHT22;5274;51.992;8.518;2023-02-03T09:09:59;6.90;1.00
10453;DHT22;5274;51.992;8.518;2023-02-03T09:12:25;6.90;1.00
10453;DHT22;5274;51.992;8.518;2023-02-03T09:14:50;7.00;1.00
10453;DHT22;5274;51.992;8.518;2023-02-03T09:17:16;7.00;1.00
10453;DHT22;5274;51.992;8.518;2023-02-03T09:19:41;7.00;1.00
10453;DHT22;5274;51.992;8.518;2023-02-03T09:22:07;7.00;1.00
10453;DHT22;5274;51.992;8.518;2023-02-03T09:24:32;7.00;1.00
10453;DHT22;5274;51.992;8.518;2023-02-03T09:26:58;7.10;1.00
10453;DHT22;5274;51.992;8.518;2023-02-03T09:29:25;7.10;1.00
10453;DHT22;5274;51.992;8.518;2023-02-03T09:31:51;7.10;1.00
10453;DHT22;5274;51.992;8.518;2023-02-03T09:34:18;7.10;1.00
10453;DHT22;5274;51.992;8.518;2023-02-03T09:36:44;7.10;1.00
10453;DHT22;5274;51.992;8.518;2023-02-03T09:39:09;7.10;1.00
10453;DHT22;5274;51.992;8.518;2023-02-03T09:44:40;7.10;1.00
10453;DHT22;5274;51.992;8.518;2023-02-03T09:47:21;7.10;1.00
10453;DHT22;5274;51.992;8.518;2023-02-03T09:49:51;7.10;1.00
10453;DHT22;5274;51.992;8.518;2023-02-03T09:55:19;7.20;1.00
10453;DHT22;5274;51.992;8.518;2023-02-03T09:58:12;7.10;1.00
10453;DHT22;5274;51.992;8.518;2023-02-03T10:00:49;7.20;1.00
10453;DHT22;5274;51.992;8.518;2023-02-03T10:06:07;7.20;1.00
10453;DHT22;5274;51.992;8.518;2023-02-03T10:14:02;7.30;1.00
10453;DHT22;5274;51.992;8.518;2023-02-03T10:16:37;7.30;1.00
10453;DHT22;5274;51.992;8.518;2023-02-03T10:19:12;7.30;1.00
10453;DHT22;5274;51.992;8.518;2023-02-03T10:21:49;7.30;1.00
10453;DHT22;5274;51.992;8.518;2023-02-03T10:24:23;7.20;1.00
10453;DHT22;5274;51.992;8.518;2023-02-03T10:26:51;7.20;1.00
10453;DHT22;5274;51.992;8.518;2023-02-03T10:29:29;7.20;1.00
10453;DHT22;5274;51.992;8.518;2023-02-03T10:31:57;7.20;1.00
10453;DHT22;5274;51.992;8.518;2023-02-03T10:34:23;7.20;1.00
10453;DHT22;5274;51.992;8.518;2023-02-03T10:36:58;7.20;1.00
10453;DHT22;5274;51.992;8.518;2023-02-03T10:39:41;7.20;1.00
10453;DHT22;5274;51.992;8.518;2023-02-03T10:42:10;7.20;1.00
10453;DHT22;5274;51.992;8.518;2023-02-03T10:44:43;7.30;1.00
10453;DHT22;5274;51.992;8.518;2023-02-03T10:47:50;7.20;1.00
10453;DHT22;5274;51.992;8.518;2023-02-03T10:50:20;7.20;1.00
10453;DHT22;5274;51.992;8.518;2023-02-03T10:52:46;7.30;1.00
10453;DHT22;5274;51.992;8.518;2023-02-03T10:57:49;7.30;1.00
10453;DHT22;5274;51.992;8.518;2023-02-03T11:00:31;7.30;1.00
10453;DHT22;5274;51.992;8.518;2023-02-03T11:05:31;7.40;1.00
10453;DHT22;5274;51.992;8.518;2023-02-03T11:07:57;7.40;1.00
10453;DHT22;5274;51.992;8.518;2023-02-03T11:10:34;7.40;1.00
10453;DHT22;5274;51.992;8.518;2023-02-03T11:13:24;7.40;1.00
10453;DHT22;5274;51.992;8.518;2023-02-03T11:16:00;7.10;1.00
10453;DHT22;5274;51.992;8.518;2023-02-03T11:18:43;7.50;1.00
10453;DHT22;5274;51.992;8.518;2023-02-03T11:21:19;7.30;1.00
10453;DHT22;5274;51.992;8.518;2023-02-03T11:26:25;7.40;1.00
10453;DHT22;5274;51.992;8.518;2023-02-03T11:28:55;7.30;1.00
10453;DHT22;5274;51.992;8.518;2023-02-03T11:31:26;7.30;1.00
10453;DHT22;5274;51.992;8.518;2023-02-03T11:33:57;7.40;1.00
10453;DHT22;5274;51.992;8.518;2023-02-03T11:36:29;7.30;1.00
10453;DHT22;5274;51.992;8.518;2023-02-03T11:39:19;7.30;1.00
10453;DHT22;5274;51.992;8.518;2023-02-03T11:41:47;7.40;1.00
10453;DHT22;5274;51.992;8.518;2023-02-03T11:44:27;7.30;1.00
10453;DHT22;5274;51.992;8.518;2023-02-03T11:46:59;7.30;1.00
10453;DHT22;5274;51.992;8.518;2023-02-03T11:49:35;7.30;1.00
10453;DHT22;5274;51.992;8.518;2023-02-03T11:52:38;7.30;1.00
10453;DHT22;5274;51.992;8.518;2023-02-03T11:55:43;7.20;1.00
10453;DHT22;5274;51.992;8.518;2023-02-03T11:58:40;7.20;1.00
10453;DHT22;5274;51.992;8.518;2023-02-03T12:04:03;7.30;1.00
10453;DHT22;5274;51.992;8.518;2023-02-03T12:10:01;7.30;1.00
10453;DHT22;5274;51.992;8.518;2023-02-03T12:12:47;7.20;1.00
10453;DHT22;5274;51.992;8.518;2023-02-03T12:18:07;7.20;1.00
10453;DHT22;5274;51.992;8.518;2023-02-03T12:20:54;7.20;1.00
10453;DHT22;5274;51.992;8.518;2023-02-03T12:26:21;6.70;1.00
10453;DHT22;5274;51.992;8.518;2023-02-03T12:29:08;7.30;1.00
10453;DHT22;5274;51.992;8.518;2023-02-03T12:31:39;7.30;1.00
10453;DHT22;5274;51.992;8.518;2023-02-03T12:34:27;7.40;1.00
10453;DHT22;5274;51.992;8.518;2023-02-03T12:37:18;7.40;1.00
10453;DHT22;5274;51.992;8.518;2023-02-03T12:39:52;7.50;99.90
10453;DHT22;5274;51.992;8.518;2023-02-03T12:42:36;7.50;99.90
10453;DHT22;5274;51.992;8.518;2023-02-03T12:45:13;7.60;99.90
10453;DHT22;5274;51.992;8.518;2023-02-03T12:48:00;7.60;99.90
10453;DHT22;5274;51.992;8.518;2023-02-03T12:50:36;7.70;99.90
10453;DHT22;5274;51.992;8.518;2023-02-03T12:53:13;7.70;99.90
10453;DHT22;5274;51.992;8.518;2023-02-03T12:58:30;7.70;99.90
10453;DHT22;5274;51.992;8.518;2023-02-03T13:06:23;7.70;99.90
10453;DHT22;5274;51.992;8.518;2023-02-03T13:14:14;7.80;99.90
10453;DHT22;5274;51.992;8.518;2023-02-03T13:16:43;7.80;99.90
10453;DHT22;5274;51.992;8.518;2023-02-03T13:19:21;7.80;99.90
10453;DHT22;5274;51.992;8.518;2023-02-03T13:21:49;7.90;99.90
10453;DHT22;5274;51.992;8.518;2023-02-03T13:24:16;7.90;6.40
10453;DHT22;5274;51.992;8.518;2023-02-03T13:32:23;7.80;1.00
10453;DHT22;5274;51.992;8.518;2023-02-03T13:41:08;7.70;1.00
10453;DHT22;5274;51.992;8.518;2023-02-03T13:43:38;7.70;1.00
10453;DHT22;5274;51.992;8.518;2023-02-03T13:46:06;7.80;99.90
10453;DHT22;5274;51.992;8.518;2023-02-03T13:48:33;7.70;99.90
10453;DHT22;5274;51.992;8.518;2023-02-03T13:53:41;7.80;99.90
10453;DHT22;5274;51.992;8.518;2023-02-03T13:58:41;7.80;99.90
10453;DHT22;5274;51.992;8.518;2023-02-03T14:01:32;7.70;99.90
10453;DHT22;5274;51.992;8.518;2023-02-03T14:03:59;7.70;1.00
10453;DHT22;5274;51.992;8.518;2023-02-03T14:09:22;7.70;1.00
10453;DHT22;5274;51.992;8.518;2023-02-03T14:11:50;7.80;99.90
10453;DHT22;5274;51.992;8.518;2023-02-03T14:16:43;7.80;1.00
10453;DHT22;5274;51.992;8.518;2023-02-03T14:22:08;7.70;1.00
10453;DHT22;5274;51.992;8.518;2023-02-03T14:24:43;7.70;48.40
10453;DHT22;5274;51.992;8.518;2023-02-03T14:27:21;7.60;1.00
10453;DHT22;5274;51.992;8.518;2023-02-03T14:30:11;7.60;99.30
10453;DHT22;5274;51.992;8.518;2023-02-03T14:33:00;7.60;99.90
10453;DHT22;5274;51.992;8.518;2023-02-03T14:35:38;7.60;18.00
10453;DHT22;5274;51.992;8.518;2023-02-03T14:38:13;7.50;99.90
10453;DHT22;5274;51.992;8.518;2023-02-03T14:46:15;7.50;1.00
10453;DHT22;5274;51.992;8.518;2023-02-03T14:48:47;7.50;1.00
10453;DHT22;5274;51.992;8.518;2023-02-03T14:57:37;7.50;1.00
10453;DHT22;5274;51.992;8.518;2023-02-03T15:05:43;7.40;1.00
10453;DHT22;5274;51.992;8.518;2023-02-03T15:08:47;7.40;98.70
10453;DHT22;5274;51.992;8.518;2023-02-03T15:11:26;7.40;99.90
10453;DHT22;5274;51.992;8.518;2023-02-03T15:13:54;7.40;99.90
10453;DHT22;5274;51.992;8.518;2023-02-03T15:16:22;7.40;99.90
10453;DHT22;5274;51.992;8.518;2023-02-03T15:18:56;7.30;80.20
10453;DHT22;5274;51.992;8.518;2023-02-03T15:21:23;7.30;99.90
10453;DHT22;5274;51.992;8.518;2023-02-03T15:23:48;7.30;99.90
10453;DHT22;5274;51.992;8.518;2023-02-03T15:26:21;7.40;1.00
10453;DHT22;5274;51.992;8.518;2023-02-03T15:28:59;7.30;1.00
10453;DHT22;5274;51.992;8.518;2023-02-03T15:31:36;7.30;1.00
10453;DHT22;5274;51.992;8.518;2023-02-03T15:36:48;7.10;1.00
10453;DHT22;5274;51.992;8.518;2023-02-03T15:39:17;7.10;99.90
10453;DHT22;5274;51.992;8.518;2023-02-03T15:41:44;7.10;1.00
10453;DHT22;5274;51.992;8.518;2023-02-03T15:44:26;7.00;99.90
10453;DHT22;5274;51.992;8.518;2023-02-03T15:46:53;7.00;66.30
10453;DHT22;5274;51.992;8.518;2023-02-03T15:49:33;7.00;99.90
10453;DHT22;5274;51.992;8.518;2023-02-03T15:52:10;6.90;99.90
10453;DHT22;5274;51.992;8.518;2023-02-03T15:54:45;6.90;99.90
10453;DHT22;5274;51.992;8.518;2023-02-03T15:57:22;6.80;1.00
10453;DHT22;5274;51.992;8.518;2023-02-03T15:59:57;6.80;1.00
10453;DHT22;5274;51.992;8.518;2023-02-03T16:02:27;6.80;99.90
10453;DHT22;5274;51.992;8.518;2023-02-03T16:04:54;6.80;1.00
10453;DHT22;5274;51.992;8.518;2023-02-03T16:07:22;6.80;1.00
10453;DHT22;5274;51.992;8.518;2023-02-03T16:09:58;6.80;1.00
10453;DHT22;5274;51.992;8.518;2023-02-03T16:12:26;6.80;1.00
10453;DHT22;5274;51.992;8.518;2023-02-03T16:14:54;6.70;1.00
10453;DHT22;5274;51.992;8.518;2023-02-03T16:17:29;6.60;1.00
10453;DHT22;5274;51.992;8.518;2023-02-03T16:25:35;6.70;99.90
10453;DHT22;5274;51.992;8.518;2023-02-03T16:28:14;6.60;99.90
10453;DHT22;5274;51.992;8.518;2023-02-03T16:31:19;6.50;1.00
10453;DHT22;5274;51.992;8.518;2023-02-03T16:34:13;6.50;1.00
10453;DHT22;5274;51.992;8.518;2023-02-03T16:36:58;6.50;1.00
10453;DHT22;5274;51.992;8.518;2023-02-03T16:39:43;6.50;28.50
10453;DHT22;5274;51.992;8.518;2023-02-03T16:42:36;6.50;1.00
10453;DHT22;5274;51.992;8.518;2023-02-03T16:45:21;6.40;99.90
10453;DHT22;5274;51.992;8.518;2023-02-03T16:48:07;6.50;99.90
10453;DHT22;5274;51.992;8.518;2023-02-03T16:50:51;6.40;1.00
10453;DHT22;5274;51.992;8.518;2023-02-03T16:53:25;6.50;1.00
10453;DHT22;5274;51.992;8.518;2023-02-03T16:55:52;6.40;19.90
10453;DHT22;5274;51.992;8.518;2023-02-03T16:58:18;6.50;99.90
10453;DHT22;5274;51.992;8.518;2023-02-03T17:00:46;6.40;18.50
10453;DHT22;5274;51.992;8.518;2023-02-03T17:03:17;6.50;1.00
10453;DHT22;5274;51.992;8.518;2023-02-03T17:05:44;6.40;99.90
10453;DHT22;5274;51.992;8.518;2023-02-03T17:08:10;6.40;1.00
10453;DHT22;5274;51.992;8.518;2023-02-03T17:10:37;6.40;1.00
10453;DHT22;5274;51.992;8.518;2023-02-03T17:13:04;6.40;1.00
10453;DHT22;5274;51.992;8.518;2023-02-03T17:15:30;6.40;1.00
10453;DHT22;5274;51.992;8.518;2023-02-03T17:17:57;6.30;99.90
10453;DHT22;5274;51.992;8.518;2023-02-03T17:20:23;6.30;2.80
10453;DHT22;5274;51.992;8.518;2023-02-03T17:22:48;6.40;99.90
10453;DHT22;5274;51.992;8.518;2023-02-03T17:25:17;6.30;1.00
10453;DHT22;5274;51.992;8.518;2023-02-03T17:27:43;6.30;14.70
10453;DHT22;5274;51.992;8.518;2023-02-03T17:30:09;6.20;99.90
10453;DHT22;5274;51.992;8.518;2023-02-03T17:32:34;6.20;99.90
10453;DHT22;5274;51.992;8.518;2023-02-03T17:35:00;6.20;58.30
10453;DHT22;5274;51.992;8.518;2023-02-03T17:37:25;6.10;99.90
10453;DHT22;5274;51.992;8.518;2023-02-03T17:39:51;6.20;1.00
10453;DHT22;5274;51.992;8.518;2023-02-03T17:42:16;6.20;99.90
10453;DHT22;5274;51.992;8.518;2023-02-03T17:44:42;6.90;99.90
10453;DHT22;5274;51.992;8.518;2023-02-03T17:47:07;6.20;26.60
10453;DHT22;5274;51.992;8.518;2023-02-03T17:49:33;6.20;1.00
10453;DHT22;5274;51.992;8.518;2023-02-03T17:51:58;6.10;99.90
10453;DHT22;5274;51.992;8.518;2023-02-03T17:54:24;6.10;92.80
10453;DHT22;5274;51.992;8.518;2023-02-03T17:56:49;6.20;15.60
10453;DHT22;5274;51.992;8.518;2023-02-03T17:59:15;6.10;1.00
10453;DHT22;5274;51.992;8.518;2023-02-03T18:01:41;6.10;99.90
10453;DHT22;5274;51.992;8.518;2023-02-03T18:04:07;6.30;1.00
10453;DHT22;5274;51.992;8.518;2023-02-03T18:06:35;6.10;73.00
10453;DHT22;5274;51.992;8.518;2023-02-03T18:09:06;6.10;1.00
10453;DHT22;5274;51.992;8.518;2023-02-03T18:11:33;6.00;1.00
10453;DHT22;5274;51.992;8.518;2023-02-03T18:13:59;5.90;99.90
10453;DHT22;5274;51.992;8.518;2023-02-03T18:16:28;6.00;1.00
10453;DHT22;5274;51.992;8.518;2023-02-03T18:18:56;5.80;10.10
10453;DHT22;5274;51.992;8.518;2023-02-03T18:21:25;5.80;99.90
10453;DHT22;5274;51.992;8.518;2023-02-03T18:23:51;5.90;1.00
10453;DHT22;5274;51.992;8.518;2023-02-03T18:26:21;5.90;1.00
10453;DHT22;5274;51.992;8.518;2023-02-03T18:28:50;5.90;1.00